Latest Weather Observations for Parkes Airport

IDN60801

Issued at 9:03 pm EST Tuesday 28 June 2016 (issued every 30 minutes, with the page automatically refreshed every 10 minutes)

About weather observations | Map of weather stations | Latest weather observations for NSW | Other Formats
Station Details ID: 065068 Name: PARKES AIRPORT AWS Lat: -33.13 Lon: 148.24 Height: 323.3 m
Data from the previous 72 hours. | See also: Recent months at Parkes Airport
Date/Time
EST
Temp
°C
App
Temp
°C
Dew
Point
°C
Rel
Hum
%
Delta-T
°C
Wind Press
QNH
hPa
Press
MSL
hPa
Rain since
9am
mm
Dir  Spd
km/h
Gust
km/h
Spd
kts
Gust
kts
28/09:00pm 4.8 3.5 4.2 96 0.3 CALM 0 6 0 3 1029.3 1029.7 0.0
28/08:30pm 3.8 2.2 2.5 91 0.5 CALM 0 0 0 0 1029.1 1029.5 0.0
28/08:00pm 5.2 2.8 4.3 94 0.4 WSW 6 7 3 4 1029.0 1029.4 0.0
28/07:30pm 5.0 1.9 3.7 91 0.6 WSW 9 9 5 5 1029.0 1029.4 0.0
28/07:00pm 5.7 2.7 4.0 89 0.7 SSW 9 9 5 5 1028.6 1029.0 0.0
28/06:30pm 5.9 2.5 3.9 87 0.9 SW 11 11 6 6 1028.3 1028.7 0.0
28/06:00pm 6.9 4.0 4.7 86 1.0 SSW 9 11 5 6 1027.9 1028.3 0.0
28/05:30pm 8.0 4.0 5.1 82 1.3 SSW 15 17 8 9 1027.6 1028.0 0.0
28/05:00pm 9.0 5.9 5.6 79 1.6 SSW 11 15 6 8 1027.2 1027.6 0.0
28/04:30pm 9.5 5.4 4.5 71 2.3 SSW 15 19 8 10 1026.9 1027.3 0.0
28/04:00pm 11.2 7.3 5.3 67 2.7 SW 15 19 8 10 1026.6 1027.0 0.0
28/03:30pm 10.4 6.9 5.6 72 2.2 SSW 13 17 7 9 1026.5 1026.9 0.0
28/03:00pm 11.1 6.4 5.0 66 2.8 SW 19 24 10 13 1026.3 1026.7 0.0
28/02:30pm 12.1 6.5 5.3 63 3.2 SW 24 33 13 18 1026.2 1026.6 0.0
28/02:00pm 11.5 7.8 6.4 71 2.4 SSW 15 20 8 11 1026.3 1026.7 0.0
28/01:30pm 10.9 6.3 5.7 70 2.4 SW 19 26 10 14 1026.3 1026.7 0.0
28/01:00pm 12.2 7.9 6.9 70 2.6 SSW 19 24 10 13 1026.2 1026.6 0.0
28/12:30pm 11.1 6.6 6.0 71 2.4 SW 19 24 10 13 1026.2 1026.6 0.0
28/12:00pm 10.5 6.3 5.7 72 2.2 SW 17 26 9 14 1026.5 1026.9 0.0
28/11:30am 10.3 5.7 5.7 73 2.2 SSW 19 24 10 13 1026.8 1027.2 0.0
28/11:00am 9.5 5.6 5.3 75 1.9 SW 15 20 8 11 1027.2 1027.6 0.0
28/10:30am 9.0 4.7 5.2 77 1.7 SSW 17 22 9 12 1027.3 1027.7 0.0
28/10:00am 8.8 5.3 5.5 80 1.5 SSW 13 17 7 9 1027.2 1027.6 0.0
28/09:30am 7.8 6.0 5.3 84 1.1 SW 4 11 2 6 1026.9 1027.3 0.0
28/09:00am 6.7 5.6 5.0 89 0.8 CALM 0 0 0 0 1026.5 1026.9 0.0
28/08:30am 6.1 5.0 5.1 93 0.4 CALM 0 0 0 0 1026.2 1026.6 0.0
28/08:00am 5.7 4.6 5.0 95 0.3 CALM 0 0 0 0 1026.0 1026.4 0.0
28/07:30am 5.5 4.3 4.6 94 0.4 CALM 0 0 0 0 1025.7 1026.1 0.0
28/07:00am 5.4 4.2 4.5 94 0.4 CALM 0 0 0 0 1025.2 1025.6 0.0
28/06:30am 5.4 3.0 4.5 94 0.4 WSW 6 7 3 4 1025.0 1025.4 0.0
28/06:00am 5.4 2.8 4.4 93 0.4 WSW 7 9 4 5 1024.4 1024.7 0.0
28/05:30am 5.6 2.7 4.4 92 0.5 SSW 9 9 5 5 1024.1 1024.4 0.0
28/05:00am 5.6 3.0 4.4 92 0.5 SSW 7 9 4 5 1023.9 1024.2 0.0
28/04:30am 5.6 3.0 4.4 92 0.5 SSW 7 9 4 5 1023.6 1024.0 0.0
28/04:00am 5.7 2.7 4.3 91 0.6 SSW 9 9 5 5 1023.7 1024.1 0.0
28/03:30am 5.8 2.9 4.4 91 0.6 SSW 9 11 5 6 1023.7 1024.1 0.0
28/03:00am 5.8 2.9 4.4 91 0.6 S 9 11 5 6 1023.6 1024.0 0.0
28/02:30am 5.9 3.0 4.4 90 0.7 SSW 9 11 5 6 1023.5 1023.9 0.0
28/02:00am 6.1 3.2 4.4 89 0.7 SW 9 11 5 6 1023.3 1023.7 0.0
28/01:30am 6.1 2.8 4.3 88 0.8 SSW 11 13 6 7 1023.2 1023.6 0.0
28/01:00am 6.1 3.1 4.3 88 0.8 SSW 9 13 5 7 1023.2 1023.6 0.0
28/12:30am 6.2 2.9 4.4 88 0.8 SW 11 13 6 7 1023.0 1023.4 0.0
28/12:00am 6.1 3.6 4.6 90 0.7 SW 7 11 4 6 1022.9 1023.3 0.0
 
Date/Time
EST
Temp
°C
App
Temp
°C
Dew
Point
°C
Rel
Hum
%
Delta-T
°C
Wind Press
QNH
hPa
Press
MSL
hPa
Rain since
9am
mm
Dir  Spd
km/h
Gust
km/h
Spd
kts
Gust
kts
27/11:30pm 5.7 2.7 4.3 91 0.6 SW 9 9 5 5 1022.7 1023.1 0.0
27/11:00pm 5.7 3.1 4.2 90 0.6 SW 7 7 4 4 1022.7 1023.1 0.0
27/10:30pm 5.9 3.5 4.4 90 0.7 SW 6 9 3 5 1022.5 1022.9 0.0
27/10:00pm 6.0 4.0 4.3 89 0.7 SW 4 6 2 3 1022.2 1022.6 0.0
27/09:30pm 6.2 3.6 4.4 88 0.8 SSW 7 9 4 5 1022.3 1022.7 0.0
27/09:00pm 6.1 3.7 4.3 88 0.8 SSW 6 7 3 4 1022.2 1022.6 0.0
27/08:30pm 6.2 3.8 4.4 88 0.8 SW 6 7 3 4 1022.2 1022.6 0.0
27/08:00pm 6.3 3.8 4.5 88 0.8 SSW 7 9 4 5 1022.0 1022.4 0.0
27/07:30pm 6.5 3.5 4.3 86 1.0 SSW 9 11 5 6 1021.9 1022.2 0.0
27/07:00pm 6.5 2.7 4.0 84 1.1 SW 13 15 7 8 1021.6 1021.9 0.0
27/06:30pm 6.6 3.2 4.1 84 1.1 SW 11 15 6 8 1021.2 1021.5 0.0
27/06:00pm 6.5 2.7 4.0 84 1.1 SW 13 17 7 9 1020.8 1021.1 0.0
27/05:30pm 6.5 2.7 4.0 84 1.1 SW 13 17 7 9 1020.2 1020.6 0.0
27/05:00pm 6.6 2.4 3.9 83 1.2 SW 15 19 8 10 1019.8 1020.2 0.0
27/04:30pm 6.8 1.9 3.9 82 1.3 SW 19 24 10 13 1019.5 1019.9 0.0
27/04:00pm 6.7 1.2 4.2 84 1.1 SW 22 28 12 15 1019.1 1019.4 0.0
27/03:30pm 6.7 1.3 4.5 86 1.0 SW 22 30 12 16 1018.9 1019.2 0.0
27/03:00pm 6.3 0.9 4.3 87 0.9 SW 22 30 12 16 1018.5 1018.8 0.0
27/02:30pm 6.9 1.4 4.2 83 1.2 SW 22 30 12 16 1018.2 1018.5 0.0
27/02:00pm 6.0 -0.7 3.8 86 0.9 SW 28 35 15 19 1018.1 1018.4 0.0
27/01:30pm 6.4 0.6 4.2 86 1.0 SW 24 33 13 18 1018.0 1018.3 0.0
27/01:00pm 6.5 0.8 4.8 89 0.8 SW 24 32 13 17 1018.1 1018.4 0.0
27/12:30pm 6.9 1.0 4.0 82 1.3 SW 24 32 13 17 1018.2 1018.5 0.0
27/12:00pm 6.3 0.0 3.5 82 1.2 SW 26 32 14 17 1018.4 1018.7 0.0
27/11:30am 5.8 0.3 3.8 87 0.9 SW 22 28 12 15 1018.7 1019.0 0.0
27/11:00am 6.0 1.1 4.3 89 0.7 SW 19 22 10 12 1018.8 1019.1 0.0
27/10:30am 5.2 0.6 3.5 89 0.7 SW 17 20 9 11 1018.9 1019.2 0.0
27/10:00am 5.2 -0.4 3.7 90 0.6 SW 22 28 12 15 1019.0 1019.3 0.0
27/09:30am 4.9 -0.1 3.7 92 0.5 SW 19 24 10 13 1018.9 1019.2 0.0
27/09:00am 4.9 0.8 4.2 95 0.3 SW 15 19 8 10 1018.6 1018.9 2.0
27/08:30am 4.8 1.1 4.2 96 0.3 SW 13 17 7 9 1018.2 1018.5 1.8
27/08:00am 4.5 0.7 3.9 96 0.3 SW 13 17 7 9 1018.0 1018.3 1.8
27/07:30am 4.5 1.5 4.1 97 0.2 SW 9 11 5 6 1017.8 1018.1 1.6
27/07:00am 4.5 1.5 4.1 97 0.2 SW 9 11 5 6 1017.6 1017.9 1.6
27/06:30am 4.6 1.2 4.2 97 0.2 SSW 11 13 6 7 1017.1 1017.5 1.6
27/06:00am 4.6 1.2 4.2 97 0.2 SW 11 15 6 8 1016.7 1017.1 1.6
27/05:30am 4.6 1.2 4.2 97 0.2 SW 11 15 6 8 1016.6 1016.9 1.4
27/05:00am 4.7 1.0 4.3 97 0.2 SW 13 15 7 8 1016.5 1016.8 1.4
27/04:30am 4.7 1.7 4.3 97 0.2 SW 9 13 5 7 1016.3 1016.6 1.4
27/04:00am 4.6 2.2 4.2 97 0.2 SSW 6 7 3 4 1016.4 1016.7 0.8
27/03:30am 4.6 2.0 4.2 97 0.2 SSW 7 9 4 5 1016.6 1016.9 0.4
27/03:00am 4.5 1.5 3.9 96 0.3 SW 9 9 5 5 1016.7 1017.1 0.2
27/02:30am 4.5 1.1 4.1 97 0.2 SSW 11 13 6 7 1016.6 1016.9 0.0
27/02:00am 4.5 1.5 3.9 96 0.3 SSW 9 11 5 6 1016.5 1016.8 0.0
27/01:30am 4.5 3.2 3.9 96 0.3 CALM 0 0 0 0 1016.7 1017.1 0.0
27/01:00am 4.5 1.8 3.9 96 0.3 SSW 7 9 4 5 1016.4 1016.7 0.0
27/12:30am 4.7 0.9 4.1 96 0.3 SSW 13 15 7 8 1016.7 1017.1 0.0
27/12:00am 4.5 3.2 3.9 96 0.3 CALM 0 0 0 0 1017.3 1017.6 0.0
 
Date/Time
EST
Temp
°C
App
Temp
°C
Dew
Point
°C
Rel
Hum
%
Delta-T
°C
Wind Press
QNH
hPa
Press
MSL
hPa
Rain since
9am
mm
Dir  Spd
km/h
Gust
km/h
Spd
kts
Gust
kts
26/11:30pm 4.6 2.0 4.0 96 0.3 NNW 7 9 4 5 1017.5 1017.8 0.0
26/11:00pm 4.6 2.1 3.9 95 0.3 NNW 6 7 3 4 1017.1 1017.5 0.0
26/10:30pm 4.8 1.8 4.1 95 0.3 NNW 9 11 5 6 1017.6 1017.9 0.0
26/10:00pm 4.7 2.1 4.0 95 0.3 NNW 7 9 4 5 1017.6 1017.9 0.0
26/09:30pm 4.9 2.3 4.0 94 0.4 SW 7 11 4 6 1017.8 1018.1 0.0
26/09:00pm 5.0 2.0 4.0 93 0.4 SW 9 11 5 6 1017.0 1017.4 0.0
26/08:30pm 5.1 2.6 3.9 92 0.5 S 6 9 3 5 1017.3 1017.6 0.0
26/08:00pm 5.0 2.4 4.0 93 0.4 ESE 7 9 4 5 1017.7 1018.0 0.0
26/07:30pm 5.0 2.5 3.8 92 0.5 ESE 6 7 3 4 1017.6 1017.9 0.0
26/07:00pm 5.2 3.8 3.7 90 0.6 CALM 0 0 0 0 1018.0 1018.3 0.0
26/06:30pm 5.4 3.6 3.7 89 0.7 N 2 6 1 3 1018.5 1018.8 0.0
26/06:00pm 5.5 3.0 3.7 88 0.8 WSW 6 7 3 4 1018.6 1018.9 0.0
26/05:30pm 5.5 2.0 3.7 88 0.8 SW 11 13 6 7 1017.9 1018.2 0.0
26/05:00pm 5.9 2.9 3.9 87 0.9 NW 9 11 5 6 1018.1 1018.4 0.0
26/04:30pm 6.2 3.3 4.4 88 0.8 W 9 11 5 6 1017.8 1018.1 0.0
26/04:00pm 6.5 2.8 4.3 86 1.0 W 13 15 7 8 1017.3 1017.6 0.0
26/03:30pm 7.0 4.1 4.7 85 1.0 W 9 13 5 7 1017.5 1017.8 0.0
26/03:00pm 7.2 4.1 3.8 79 1.5 W 9 11 5 6 1017.4 1017.7 0.0
26/02:30pm 7.2 4.6 3.3 76 1.7 NE 6 9 3 5 1017.3 1017.6 0.0
26/02:00pm 6.8 4.2 3.2 78 1.5 S 6 7 3 4 1017.7 1018.0 0.0
26/01:30pm 6.9 3.4 3.3 78 1.5 SW 11 15 6 8 1018.8 1019.1 0.0
26/01:00pm 7.2 4.4 3.3 76 1.7 SSW 7 11 4 6 1018.8 1019.1 0.0
26/12:30pm 6.6 5.0 2.3 74 1.8 CALM 0 2 0 1 1019.1 1019.4 0.0
26/12:00pm 6.0 4.0 2.1 76 1.6 N 2 7 1 4 1019.5 1019.9 0.0
26/11:30am 6.0 4.1 2.8 80 1.3 N 2 9 1 5 1020.2 1020.6 0.0
26/11:00am 5.7 4.2 3.0 83 1.1 CALM 0 0 0 0 1020.3 1020.7 0.0
26/10:30am 4.7 3.4 4.1 96 0.3 CALM 0 0 0 0 1020.8 1021.1 0.0
26/10:00am 3.2 1.7 2.9 98 0.1 CALM 0 0 0 0 1021.2 1021.5 0.0
26/09:30am 1.8 -1.1 1.5 98 0.1 ENE 6 7 3 4 1021.6 1021.9 0.0
26/09:00am 0.6 -1.3 0.3 98 0.1 CALM 0 0 0 0 1021.7 1022.0 0.0
26/08:30am -0.2 -3.0 -0.6 97 0.1 NNE 4 6 2 3 1021.6 1021.9 0.0
26/08:00am -0.5 -3.0 -0.9 97 0.1 E 2 6 1 3 1021.3 1021.6 0.0
26/07:30am -1.5 -4.9 -1.9 97 0.1 E 6 9 3 5 1021.0 1021.3 0.0
26/07:00am -1.9 -4.2 -2.5 96 0.1 CALM 0 0 0 0 1021.0 1021.3 0.0
26/06:30am -1.2 -3.4 -1.6 97 0.1 CALM 0 0 0 0 1021.1 1021.4 0.0
26/06:00am -1.5 -4.9 -1.9 97 0.1 E 6 7 3 4 1020.9 1021.2 0.0
26/05:30am -1.7 -5.3 -2.1 97 0.1 ENE 7 9 4 5 1020.8 1021.1 0.0
26/05:00am -1.4 -5.0 -1.8 97 0.1 ENE 7 9 4 5 1020.8 1021.1 0.0
26/04:30am -1.1 -4.6 -1.5 97 0.1 E 7 7 4 4 1021.1 1021.4 0.0
26/04:00am -0.7 -4.2 -1.1 97 0.1 E 7 9 4 5 1021.2 1021.5 0.0
26/03:30am -1.4 -5.3 -1.8 97 0.1 E 9 9 5 5 1021.2 1021.5 0.0
26/03:00am -1.4 -5.0 -1.8 97 0.1 E 7 7 4 4 1021.3 1021.6 0.0
26/02:30am -1.2 -4.5 -1.6 97 0.1 E 6 7 3 4 1021.0 1021.3 0.0
26/02:00am -0.9 -3.1 -1.3 97 0.1 CALM 0 0 0 0 1021.0 1021.3 0.0
26/01:30am -0.5 -3.4 -0.9 97 0.1 E 4 7 2 4 1021.2 1021.5 0.0
26/01:00am -0.6 -4.4 -1.0 97 0.1 E 9 11 5 6 1021.2 1021.5 0.0
26/12:30am 0.0 -3.4 -0.4 97 0.1 E 7 9 4 5 1022.0 1022.4 0.0
26/12:00am -0.3 -4.1 -0.7 97 0.1 E 9 11 5 6 1022.4 1022.8 0.0
 
Date/Time
EST
Temp
°C
App
Temp
°C
Dew
Point
°C
Rel
Hum
%
Delta-T
°C
Wind Press
QNH
hPa
Press
MSL
hPa
Rain since
9am
mm
Dir  Spd
km/h
Gust
km/h
Spd
kts
Gust
kts
25/11:30pm -0.3 -4.9 -0.7 97 0.1 ENE 13 17 7 9 1023.2 1023.6 0.0
25/11:00pm -0.5 -4.3 -1.1 96 0.2 NE 9 11 5 6 1023.2 1023.6 0.0
25/10:30pm -0.2 -3.1 -0.8 96 0.2 N 4 7 2 4 1023.4 1023.8 0.0
25/10:00pm 0.4 -2.8 -0.2 96 0.2 N 6 9 3 5 1022.8 1023.2 0.0
25/09:30pm 0.3 -3.1 -0.4 95 0.3 N 7 9 4 5 1022.5 1022.9 0.0

Other Formats:

Comma delimited format used in spreadsheet applications
http://www.bom.gov.au/fwo/IDN60801/IDN60801.95717.axf

JavaScript Object Notation format (JSON) in row-major order
http://www.bom.gov.au/fwo/IDN60801/IDN60801.95717.json